Hauptseite
METAR-TAF:

METAR-TAF

Flughäfen :

Flughafen Grenchen

Grenchen, Schweiz

Breite: 47-10-53N, Länge: 007-24-59E, Höhe: 430 m

Beobachtung

Neuester Wetterbericht von vor 34 Minuten, um 06:20 UTC
Wind 4 kt aus West/Südwest
Temperatur 3°C
Luftfeuchtigkeit 93%
Luftdruck 1002 hPa
Sichtweite 10 km oder mehr

METAR: LSZG 240620Z AUTO 25004KT 9999 NCD 03/02 Q1002

Zeit: 07:54 (06:54 UTC)

Prognose

Neuester Wetterbericht von vor 1 Stunde und 29 Minuten, um 05:25 UTC
Gültige Prognose vom 24 um 06 UTC bis 24 um 15 UTC
Wind 2 kt aus unterschiedlichen Richtungen
Sichtweite 10 km oder mehr
Durchbrochene Bewölkung in der Höhe von 3000 ft
Zeitweise
vom 24 um 12 UTC bis 24 um 15 UTC
Wind 10 kt aus Südwest

TAF: LSZG 240525Z 2406/2415 VRB02KT 9999 BKN030 TEMPO 2412/2415 23010KT

Wetterbeobachtungen und Prognosen von mehr als 4000 Flughäfen (METAR und TAF Bericht).

Die verfügbaren Stationen werden durch gelbe und rote Markierungen auf der Karte dargestellt.

Führen Sie die Maus auf sie, um den Namen der Station zu sehen.

Darauf klicken, um die Beobachtung von Wetterbeobachtungen und Prognosen zu sehen.

Um die Karte zu ändern : klicken Sie auf den grünen Tasten mit einem schwarzen Kreuz Zum Vergrößern, auf den grünen Button mit einem Gedankenstrich zu verkleinern, oder auf die grünen Pfeile für benachbarte Karten.


METAR-TAF: